Time;durP1;ratioP1;P1;durP2;ratioP2;P2;SDS_P1;SDS_P2;PMS_P1;PMS_P2;Temp;Humidity;BMP_temperature;BMP_pressure;BME280_temperature;BME280_humidity;BME280_pressure;Samples;Min_cycle;Max_cycle;Signal;HPM_P1;HPM_P2
2021/11/03 00:01:05;;;;;;;80.00;38.53;;;;;;;8.96;100.00;100172.84;5052643;28;20063;-69
2021/11/03 00:03:33;;;;;;;94.25;40.33;;;;;;;9.08;100.00;100181.06;5052592;28;20116;-67
2021/11/03 00:05:58;;;;;;;87.07;38.45;;;;;;;9.05;100.00;100150.06;5052074;28;20490;-69
2021/11/03 00:08:27;;;;;;;103.82;40.20;;;;;;;8.94;100.00;100130.75;5045514;28;20025;-68
2021/11/03 00:10:54;;;;;;;83.68;37.65;;;;;;;9.19;100.00;100159.16;5042154;28;20033;-70
2021/11/03 00:13:23;;;;;;;91.90;39.38;;;;;;;9.08;100.00;100145.00;5049166;28;20029;-73
2021/11/03 00:15:49;;;;;;;91.63;37.72;;;;;;;9.07;100.00;100180.19;5047975;28;20037;-70
2021/11/03 00:18:15;;;;;;;88.60;39.58;;;;;;;9.16;100.00;100178.75;5050592;28;20025;-70
2021/11/03 00:20:41;;;;;;;81.03;39.70;;;;;;;9.10;100.00;100174.28;5049914;28;20039;-70
2021/11/03 00:23:07;;;;;;;85.82;39.35;;;;;;;8.69;100.00;100094.63;5049176;28;20485;-70
2021/11/03 00:25:37;;;;;;;104.78;37.38;;;;;;;9.26;100.00;100187.72;5050446;28;20029;-73
2021/11/03 00:28:03;;;;;;;90.22;38.55;;;;;;;8.85;100.00;100098.69;5047634;28;20025;-73
2021/11/03 00:30:29;;;;;;;97.25;38.70;;;;;;;9.41;100.00;100188.31;5035284;28;20060;-72
2021/11/03 00:32:54;;;;;;;105.28;40.35;;;;;;;9.36;100.00;100184.69;5030999;28;20065;-74
2021/11/03 00:35:20;;;;;;;98.18;40.33;;;;;;;9.33;100.00;100171.69;5051777;28;20501;-73
2021/11/03 00:37:46;;;;;;;101.68;39.50;;;;;;;9.61;100.00;100201.03;4993562;28;20042;-73
2021/11/03 00:40:12;;;;;;;101.55;40.22;;;;;;;9.20;100.00;100135.16;5010221;28;20049;-74
2021/11/03 00:42:38;;;;;;;93.78;37.70;;;;;;;9.55;100.00;100205.16;5010479;28;20125;-74
2021/11/03 00:45:04;;;;;;;85.50;36.60;;;;;;;9.38;100.00;100189.09;5010046;28;20104;-74
2021/11/03 00:47:30;;;;;;;81.80;36.17;;;;;;;9.00;100.00;100143.84;5009424;28;20042;-71
2021/11/03 00:49:55;;;;;;;80.13;39.17;;;;;;;9.30;100.00;100180.19;5010147;28;20025;-72
2021/11/03 00:52:21;;;;;;;81.55;37.15;;;;;;;9.53;100.00;100205.91;5009211;28;20034;-75
2021/11/03 00:54:47;;;;;;;77.43;34.15;;;;;;;9.58;100.00;100217.25;4993433;28;20040;-72
2021/11/03 00:57:13;;;;;;;82.47;33.10;;;;;;;9.59;100.00;100213.00;5007521;28;20061;-73
2021/11/03 00:59:38;;;;;;;78.97;37.10;;;;;;;9.59;100.00;100211.28;5018950;28;20220;-73
2021/11/03 01:02:04;;;;;;;78.38;35.25;;;;;;;9.49;100.00;100197.19;5029329;28;20060;-73
2021/11/03 01:04:29;;;;;;;72.43;30.98;;;;;;;9.47;100.00;100226.28;5028731;28;20038;-72
2021/11/03 01:06:55;;;;;;;72.50;30.75;;;;;;;9.22;100.00;100228.84;5028796;28;20091;-72
2021/11/03 01:09:20;;;;;;;96.78;33.35;;;;;;;9.11;100.00;100219.81;5058527;28;20456;-73
2021/11/03 01:11:46;;;;;;;92.97;35.45;;;;;;;9.00;100.00;100218.53;5070243;28;20111;-72
2021/11/03 01:14:12;;;;;;;72.90;33.50;;;;;;;8.62;100.00;100167.25;5068349;28;20021;-72
2021/11/03 01:16:38;;;;;;;82.10;34.92;;;;;;;9.05;100.00;100219.59;5070591;28;20475;-74
2021/11/03 01:19:05;;;;;;;83.28;34.90;;;;;;;9.22;100.00;100239.13;5070990;28;20020;-72
2021/11/03 01:21:32;;;;;;;82.93;35.38;;;;;;;9.18;100.00;100223.50;5066134;28;20071;-72
2021/11/03 01:23:58;;;;;;;90.20;36.05;;;;;;;9.30;100.00;100251.44;5069078;28;20119;-72
2021/11/03 01:26:23;;;;;;;88.97;35.90;;;;;;;8.89;100.00;100164.91;5069810;28;20063;-73
2021/11/03 01:28:49;;;;;;;94.07;36.97;;;;;;;9.37;100.00;100253.41;5070414;28;20391;-72
2021/11/03 01:31:15;;;;;;;102.50;38.28;;;;;;;9.43;100.00;100239.91;5070067;28;20032;-73
2021/11/03 01:33:42;;;;;;;94.97;37.03;;;;;;;9.37;100.00;100232.78;5070159;28;20113;-70
2021/11/03 01:36:08;;;;;;;89.10;39.85;;;;;;;9.50;100.00;100254.78;5070152;28;20078;-73
2021/11/03 01:38:34;;;;;;;90.45;37.50;;;;;;;9.52;100.00;100245.38;5069865;28;20097;-74
2021/11/03 01:41:00;;;;;;;94.75;38.42;;;;;;;9.46;100.00;100224.53;5070186;28;20601;-73
2021/11/03 01:43:32;;;;;;;75.35;37.00;;;;;;;9.26;100.00;100188.63;5039481;28;20163;-72
2021/11/03 01:46:21;;;;;;;84.10;36.90;;;;;;;9.46;100.00;100253.78;5057956;28;20025;-70
2021/11/03 01:48:48;;;;;;;77.05;35.70;;;;;;;9.32;100.00;100247.22;5052651;28;20470;-73
2021/11/03 01:51:20;;;;;;;90.10;39.33;;;;;;;9.18;100.00;100249.25;5071211;28;20028;-75
2021/11/03 01:53:46;;;;;;;77.57;36.72;;;;;;;9.18;100.00;100247.56;5070194;28;20423;-75
2021/11/03 01:56:11;;;;;;;94.82;36.42;;;;;;;9.31;100.00;100250.59;5067231;28;20033;-73
2021/11/03 01:58:43;;;;;;;104.60;38.10;;;;;;;9.34;100.00;100268.75;5063964;28;20032;-74
2021/11/03 02:01:10;;;;;;;105.93;38.55;;;;;;;9.32;100.00;100252.34;5063854;28;20059;-73
2021/11/03 02:03:36;;;;;;;91.43;40.33;;;;;;;9.32;100.00;100242.94;5070275;28;20067;-76
2021/11/03 02:06:11;;;;;;;99.07;40.65;;;;;;;9.45;100.00;100275.22;5051804;28;20085;-74
2021/11/03 02:08:40;;;;;;;91.22;40.47;;;;;;;9.38;100.00;100253.50;5052242;28;20043;-71
2021/11/03 02:11:06;;;;;;;88.85;40.10;;;;;;;9.00;100.00;100208.22;5070104;28;20029;-69
2021/11/03 02:13:35;;;;;;;79.75;37.80;;;;;;;9.22;100.00;100248.53;5070223;28;20405;-71
2021/11/03 02:16:01;;;;;;;83.25;38.30;;;;;;;9.35;100.00;100257.66;5070476;28;21258;-70
2021/11/03 02:18:27;;;;;;;81.80;38.65;;;;;;;9.48;100.00;100264.13;5051291;28;20060;-73
2021/11/03 02:20:54;;;;;;;82.40;39.63;;;;;;;9.33;100.00;100241.25;5060527;28;20059;-73
2021/11/03 02:23:44;;;;;;;81.72;40.30;;;;;;;9.52;100.00;100272.06;5061874;28;20402;-73
2021/11/03 02:26:19;;;;;;;81.30;41.72;;;;;;;9.52;100.00;100276.31;5053598;28;20029;-71
2021/11/03 02:28:47;;;;;;;83.68;40.50;;;;;;;9.54;100.00;100270.41;5050789;28;20426;-71
2021/11/03 02:31:36;;;;;;;96.40;41.85;;;;;;;9.51;100.00;100275.44;5032825;28;20033;-71
2021/11/03 02:34:05;;;;;;;98.95;43.13;;;;;;;9.04;100.00;100192.06;5050700;28;20029;-70
2021/11/03 02:36:31;;;;;;;85.60;43.03;;;;;;;9.52;100.00;100271.16;5053164;28;20025;-71
2021/11/03 02:39:01;;;;;;;86.78;41.90;;;;;;;9.33;100.00;100234.41;5061783;28;20036;-71
2021/11/03 02:41:28;;;;;;;;;;;;;;;9.33;100.00;100272.16;5074685;28;20028;-71
2021/11/03 02:43:58;;;;;;;88.15;41.47;;;;;;;8.87;100.00;100193.97;5074795;28;20352;-70
2021/11/03 02:46:23;;;;;;;90.40;43.40;;;;;;;9.43;100.00;100276.84;5074903;28;20036;-71
2021/11/03 02:48:49;;;;;;;95.45;44.33;;;;;;;9.14;100.00;100219.94;5032455;28;20041;-70
2021/11/03 02:51:32;;;;;;;82.53;42.95;;;;;;;9.55;100.00;100279.88;5032490;28;20073;-71
2021/11/03 02:54:04;;;;;;;77.32;41.17;;;;;;;9.57;100.00;100295.44;5032560;28;20129;-70
2021/11/03 02:56:38;;;;;;;81.32;40.33;;;;;;;9.57;100.00;100290.28;5032650;28;20048;-71
2021/11/03 02:59:05;;;;;;;78.07;39.95;;;;;;;9.52;100.00;100294.34;5032338;28;20139;-71
2021/11/03 03:01:38;;;;;;;76.22;40.00;;;;;;;8.90;100.00;100210.44;5032503;28;20077;-70
2021/11/03 03:04:11;;;;;;;75.93;41.90;;;;;;;9.49;100.00;100320.00;5032425;28;20566;-71
2021/11/03 03:06:37;;;;;;;79.70;42.67;;;;;;;9.53;100.00;100317.63;5032382;28;20108;-70
2021/11/03 03:09:04;;;;;;;79.05;43.30;;;;;;;9.49;100.00;100320.00;5032195;28;20525;-71
2021/11/03 03:11:32;;;;;;;69.90;40.60;;;;;;;9.37;100.00;100316.13;5032253;28;20044;-70
2021/11/03 03:13:58;;;;;;;75.15;41.20;;;;;;;9.18;100.00;100290.47;5032058;28;20064;-71
2021/11/03 03:16:23;;;;;;;72.25;41.13;;;;;;;8.87;100.00;100248.03;5032273;28;20041;-71
2021/11/03 03:18:49;;;;;;;78.63;40.63;;;;;;;8.97;100.00;100300.78;5035666;28;20042;-70
2021/11/03 03:21:16;;;;;;;92.45;55.25;;;;;;;9.07;100.00;100336.38;5074309;28;20024;-71
2021/11/03 03:23:42;;;;;;;84.57;46.38;;;;;;;8.62;100.00;100277.91;5074202;28;20457;-70
2021/11/03 03:26:10;;;;;;;78.20;40.00;;;;;;;8.73;100.00;100363.31;5074243;28;20033;-71
2021/11/03 03:28:35;;;;;;;78.75;39.67;;;;;;;8.55;100.00;100359.13;5074197;28;20479;-69
2021/11/03 03:31:01;;;;;;;74.60;37.30;;;;;;;8.54;100.00;100359.06;5074355;28;20067;-70
2021/11/03 03:33:27;;;;;;;73.28;38.85;;;;;;;8.54;100.00;100367.66;5074019;28;20449;-70
2021/11/03 03:35:52;;;;;;;68.93;36.65;;;;;;;8.54;100.00;100370.22;5074251;28;20021;-70
2021/11/03 03:38:19;;;;;;;69.38;36.88;;;;;;;8.69;100.00;100364.88;5073724;28;20029;-71
2021/11/03 03:40:44;;;;;;;87.95;38.35;;;;;;;8.73;100.00;100371.03;5073868;28;20024;-71
2021/11/03 03:43:10;;;;;;;76.65;34.13;;;;;;;8.33;100.00;100297.25;5074073;28;20047;-71
2021/11/03 03:45:36;;;;;;;72.43;32.45;;;;;;;8.41;100.00;100381.66;5074160;28;20486;-71
2021/11/03 03:48:02;;;;;;;75.40;34.97;;;;;;;8.24;100.00;100395.47;5073746;28;20535;-69
2021/11/03 03:50:27;;;;;;;72.85;33.40;;;;;;;8.34;100.00;100383.91;5073685;28;20474;-70
2021/11/03 03:52:53;;;;;;;72.95;31.63;;;;;;;8.26;100.00;100381.84;5074100;28;20103;-70
2021/11/03 03:55:18;;;;;;;73.53;34.92;;;;;;;8.22;100.00;100379.97;5073405;28;20066;-70
2021/11/03 03:57:44;;;;;;;75.40;33.15;;;;;;;8.15;100.00;100419.06;5073384;28;20028;-70
2021/11/03 04:00:14;;;;;;;76.78;32.95;;;;;;;8.08;100.00;100414.44;5061223;28;20129;-69
2021/11/03 04:02:40;;;;;;;81.90;34.30;;;;;;;7.97;100.00;100393.38;5053354;28;20045;-70
2021/11/03 04:05:06;;;;;;;96.55;35.20;;;;;;;8.03;100.00;100403.06;5053502;28;20025;-70
2021/11/03 04:07:31;;;;;;;89.68;32.92;;;;;;;7.97;100.00;100416.50;5053721;28;20037;-70
2021/11/03 04:09:57;;;;;;;95.35;32.78;;;;;;;7.88;100.00;100393.81;5053600;28;20487;-71
2021/11/03 04:12:22;;;;;;;76.00;32.65;;;;;;;7.97;100.00;100400.22;5053429;28;20021;-71
2021/11/03 04:14:48;;;;;;;90.00;30.50;;;;;;;7.96;100.00;100425.03;5053507;28;20106;-70
2021/11/03 04:17:14;;;;;;;92.70;30.73;;;;;;;7.90;100.00;100417.94;5052952;28;20434;-71
2021/11/03 04:19:39;;;;;;;84.07;32.55;;;;;;;8.12;100.00;100406.06;5053295;28;20108;-70
2021/11/03 04:22:05;;;;;;;117.53;33.15;;;;;;;8.12;100.00;100370.06;5053201;28;20036;-72
2021/11/03 04:24:31;;;;;;;91.07;34.30;;;;;;;8.39;100.00;100398.72;5037581;28;20476;-71
2021/11/03 04:26:57;;;;;;;79.00;35.22;;;;;;;8.25;100.00;100354.38;5033395;28;20479;-71
2021/11/03 04:29:24;;;;;;;76.72;35.70;;;;;;;8.65;100.00;100410.97;5033399;28;20031;-70
2021/11/03 04:31:51;;;;;;;80.18;35.45;;;;;;;8.75;100.00;100402.88;5032864;28;20021;-69
2021/11/03 04:34:16;;;;;;;72.47;36.00;;;;;;;8.70;100.00;100409.53;5033380;28;20056;-71
2021/11/03 04:36:43;;;;;;;72.80;36.25;;;;;;;8.60;100.00;100415.94;5033285;28;20061;-70
2021/11/03 04:39:10;;;;;;;75.28;39.45;;;;;;;8.53;100.00;100414.78;5032777;28;20069;-71
2021/11/03 04:41:36;;;;;;;75.55;40.75;;;;;;;8.58;100.00;100421.03;5032868;28;20407;-71
2021/11/03 04:44:01;;;;;;;75.57;39.22;;;;;;;8.51;100.00;100408.72;5032998;28;20029;-71
2021/11/03 04:46:27;;;;;;;71.03;39.08;;;;;;;8.60;100.00;100405.66;5032457;28;20509;-71
2021/11/03 04:48:52;;;;;;;73.07;35.58;;;;;;;8.69;100.00;100413.75;5032603;28;20558;-70
2021/11/03 04:51:19;;;;;;;88.88;37.28;;;;;;;8.81;100.00;100422.84;5032817;28;20025;-70
2021/11/03 04:53:45;;;;;;;83.68;37.15;;;;;;;8.33;100.00;100346.13;5032839;28;20025;-71
2021/11/03 04:56:11;;;;;;;234.48;39.78;;;;;;;8.80;100.00;100418.50;5033253;28;20118;-70
2021/11/03 04:58:37;;;;;;;139.73;38.78;;;;;;;8.68;100.00;100411.13;5031766;28;20032;-71
2021/11/03 05:01:02;;;;;;;163.13;46.42;;;;;;;8.87;100.00;100429.16;5051562;28;20053;-70
2021/11/03 05:03:29;;;;;;;211.35;41.25;;;;;;;8.88;100.00;100437.75;5052162;28;20523;-71
2021/11/03 05:05:56;;;;;;;155.13;40.63;;;;;;;8.64;100.00;100415.25;5052460;28;20048;-70
2021/11/03 05:08:22;;;;;;;162.25;41.10;;;;;;;8.88;100.00;100437.75;5052928;28;20040;-70
2021/11/03 05:10:47;;;;;;;145.13;54.90;;;;;;;8.96;100.00;100448.34;5052277;28;20032;-71
2021/11/03 05:13:13;;;;;;;222.45;41.80;;;;;;;8.99;100.00;100439.06;5051927;28;20055;-71
2021/11/03 05:15:39;;;;;;;296.02;41.88;;;;;;;8.88;100.00;100418.03;5051922;28;20029;-71
2021/11/03 05:18:05;;;;;;;351.17;43.53;;;;;;;8.97;100.00;100457.84;5052214;28;20108;-70
2021/11/03 05:20:30;;;;;;;301.40;42.28;;;;;;;8.76;100.00;100460.38;5051901;28;20032;-70
2021/11/03 05:22:56;;;;;;;359.45;42.47;;;;;;;8.65;100.00;100444.44;5051906;28;20112;-69
2021/11/03 05:25:25;;;;;;;315.38;39.70;;;;;;;8.56;100.00;100474.13;5051328;28;20087;-72
2021/11/03 05:27:51;;;;;;;301.17;38.43;;;;;;;7.53;100.00;100315.13;5000442;28;20072;-70
2021/11/03 05:30:19;;;;;;;253.70;39.65;;;;;;;8.51;100.00;100472.13;5059306;28;20265;-70
2021/11/03 05:32:44;;;;;;;278.92;39.13;;;;;;;8.53;100.00;100483.38;5062634;28;20040;-71
2021/11/03 05:35:10;;;;;;;174.73;37.70;;;;;;;8.55;100.00;100477.50;5060023;28;20419;-70
2021/11/03 05:37:36;;;;;;;247.40;40.85;;;;;;;8.48;100.00;100485.75;5061409;28;20036;-70
2021/11/03 05:40:05;;;;;;;250.80;39.00;;;;;;;8.39;100.00;100509.31;5054453;28;20060;-70
2021/11/03 05:42:30;;;;;;;131.68;36.00;;;;;;;8.51;100.00;100515.88;5051598;28;20093;-72
2021/11/03 05:44:55;;;;;;;174.48;36.42;;;;;;;8.65;100.00;100521.66;5051872;28;20037;-70
2021/11/03 05:47:25;;;;;;;184.73;36.53;;;;;;;8.76;100.00;100517.00;5051295;28;20043;-71
2021/11/03 05:49:53;;;;;;;164.77;34.95;;;;;;;8.80;100.00;100519.78;5041349;28;20123;-70
2021/11/03 05:52:18;;;;;;;190.50;37.17;;;;;;;8.83;100.00;100530.19;5067335;28;20543;-70
2021/11/03 05:54:45;;;;;;;173.48;35.50;;;;;;;8.83;100.00;100521.63;5069767;28;20122;-71
2021/11/03 05:57:21;;;;;;;148.10;35.90;;;;;;;8.68;100.00;100532.97;5062822;28;20401;-71
2021/11/03 05:59:48;;;;;;;158.07;36.58;;;;;;;8.47;100.00;100521.69;5047289;28;20044;-74
2021/11/03 06:02:13;;;;;;;161.75;34.97;;;;;;;8.65;100.00;100539.66;5051377;28;20029;-72
2021/11/03 06:04:39;;;;;;;133.88;36.22;;;;;;;8.68;100.00;100534.66;5051469;28;20548;-70
2021/11/03 06:07:04;;;;;;;105.82;36.47;;;;;;;8.67;100.00;100520.94;5051096;28;20486;-68
2021/11/03 06:09:32;;;;;;;173.98;36.50;;;;;;;8.43;100.00;100472.63;5051467;28;20386;-71
2021/11/03 06:11:57;;;;;;;107.15;35.10;;;;;;;8.92;100.00;100544.31;5015712;28;20124;-71
2021/11/03 06:14:23;;;;;;;121.80;33.30;;;;;;;8.57;100.00;100472.41;5051448;28;20033;-71
2021/11/03 06:16:48;;;;;;;128.05;36.55;;;;;;;9.03;100.00;100550.81;5051513;28;20475;-71
2021/11/03 06:19:13;;;;;;;158.18;34.58;;;;;;;8.98;100.00;100540.31;5049752;28;20037;-71
2021/11/03 06:21:39;;;;;;;139.98;34.03;;;;;;;9.04;100.00;100562.88;5051319;28;20094;-71
2021/11/03 06:24:04;;;;;;;78.15;31.75;;;;;;;8.80;100.00;100542.06;5051167;28;20439;-71
2021/11/03 06:26:30;;;;;;;106.05;35.22;;;;;;;8.47;100.00;100462.53;5050808;28;20029;-72
2021/11/03 06:28:56;;;;;;;167.68;36.35;;;;;;;9.03;100.00;100543.09;5051371;28;20463;-71
2021/11/03 06:31:22;;;;;;;112.40;38.33;;;;;;;9.14;100.00;100565.03;5051101;28;20079;-69
2021/11/03 06:33:48;;;;;;;95.50;32.28;;;;;;;8.95;100.00;100580.47;5050961;28;20060;-70
2021/11/03 06:36:14;;;;;;;98.75;28.67;;;;;;;8.96;100.00;100571.94;5051488;28;20059;-72
2021/11/03 06:38:40;;;;;;;101.05;34.30;;;;;;;8.95;100.00;100557.31;5050711;28;20029;-72
2021/11/03 06:41:07;;;;;;;103.30;33.55;;;;;;;9.20;100.00;100587.63;5050705;28;20079;-72
2021/11/03 06:43:32;;;;;;;102.95;31.17;;;;;;;8.84;100.00;100526.81;5032949;28;20033;-74
2021/11/03 06:45:58;;;;;;;91.68;32.38;;;;;;;9.32;100.00;100595.00;5050779;28;20029;-69
2021/11/03 06:48:25;;;;;;;117.07;31.10;;;;;;;9.25;100.00;100585.28;5050948;28;20097;-72
2021/11/03 06:50:51;;;;;;;115.00;30.92;;;;;;;9.17;100.00;100578.09;5051134;28;20028;-72
2021/11/03 06:53:22;;;;;;;70.57;29.00;;;;;;;9.49;100.00;100606.94;5050660;28;20045;-72
2021/11/03 06:55:49;;;;;;;81.35;28.35;;;;;;;9.06;100.00;100520.94;5050583;28;20052;-72
2021/11/03 06:58:15;;;;;;;48.63;26.10;;;;;;;9.52;100.00;100614.81;5050632;28;20083;-72
2021/11/03 07:00:44;;;;;;;44.85;25.17;;;;;;;9.49;100.00;100614.66;5034032;28;20419;-72
2021/11/03 07:03:09;;;;;;;47.10;23.52;;;;;;;9.44;100.00;100592.97;5031094;28;20033;-71
2021/11/03 07:05:38;;;;;;;53.30;20.05;;;;;;;9.36;100.00;100626.13;5030874;28;20152;-72
2021/11/03 07:08:04;;;;;;;41.45;21.15;;;;;;;9.45;100.00;100630.81;5030761;28;20083;-73
2021/11/03 07:10:35;;;;;;;53.55;22.27;;;;;;;9.36;100.00;100640.72;5031044;28;20033;-72
2021/11/03 07:13:00;;;;;;;47.38;22.90;;;;;;;9.33;100.00;100641.47;5030903;28;20061;-71
2021/11/03 07:15:26;;;;;;;38.33;21.85;;;;;;;9.29;100.00;100628.38;5030743;28;20053;-71
2021/11/03 07:17:52;;;;;;;37.63;23.25;;;;;;;9.35;100.00;100644.97;5030537;28;20022;-72
2021/11/03 07:20:18;;;;;;;38.40;22.33;;;;;;;9.55;100.00;100653.59;5032283;28;20507;-72
2021/11/03 07:22:44;;;;;;;39.78;22.20;;;;;;;9.45;100.00;100620.50;5001120;28;20406;-71
2021/11/03 07:25:12;;;;;;;44.58;22.52;;;;;;;9.65;100.00;100649.72;5050993;28;20025;-72
2021/11/03 07:27:38;;;;;;;41.83;26.63;;;;;;;9.81;100.00;100658.13;5053532;28;20486;-72
2021/11/03 07:30:05;;;;;;;42.55;28.30;;;;;;;9.77;100.00;100651.97;5053576;28;20032;-72
2021/11/03 07:32:31;;;;;;;40.15;25.98;;;;;;;9.67;100.00;100655.84;5034217;28;20022;-72
2021/11/03 07:34:56;;;;;;;34.83;22.70;;;;;;;9.58;100.00;100650.25;5033984;28;20040;-72
2021/11/03 07:37:22;;;;;;;35.58;22.55;;;;;;;9.31;100.00;100590.66;5033506;28;20399;-72
2021/11/03 07:39:47;;;;;;;30.60;20.10;;;;;;;9.29;100.00;100574.28;5033831;28;20451;-72
2021/11/03 07:42:13;;;;;;;33.08;22.00;;;;;;;9.83;100.00;100652.22;5051029;28;20052;-72
2021/11/03 07:44:38;;;;;;;36.42;23.98;;;;;;;9.90;100.00;100649.91;5053603;28;20475;-72
2021/11/03 07:47:04;;;;;;;35.00;21.08;;;;;;;9.84;100.00;100645.38;5052949;28;20029;-72
2021/11/03 07:49:30;;;;;;;33.28;21.70;;;;;;;9.62;100.00;100623.84;5053429;28;20021;-72
2021/11/03 07:51:56;;;;;;;36.40;22.23;;;;;;;9.84;100.00;100630.78;5053077;28;20029;-69
2021/11/03 07:54:22;;;;;;;35.25;25.75;;;;;;;10.06;100.00;100647.16;5002056;28;20041;-70
2021/11/03 07:56:47;;;;;;;29.40;19.67;;;;;;;10.07;100.00;100643.78;5053520;28;20041;-72
2021/11/03 07:59:15;;;;;;;34.85;21.55;;;;;;;9.99;100.00;100630.56;5053526;28;20052;-70
2021/11/03 08:01:41;;;;;;;35.55;22.05;;;;;;;10.02;100.00;100627.22;5051786;28;20438;-70
2021/11/03 08:04:06;;;;;;;30.90;20.17;;;;;;;10.07;100.00;100630.88;5052584;28;20024;-72
2021/11/03 08:06:32;;;;;;;29.73;20.02;;;;;;;9.63;100.00;100549.94;5052292;28;20487;-70
2021/11/03 08:09:05;;;;;;;30.42;20.20;;;;;;;10.12;100.00;100626.78;5052886;28;20017;-72
2021/11/03 08:11:50;;;;;;;27.83;18.80;;;;;;;10.27;100.00;100642.00;5050772;28;20021;-72
2021/11/03 08:14:20;;;;;;;25.85;17.38;;;;;;;10.15;100.00;100632.03;5053620;28;20043;-73
2021/11/03 08:16:48;;;;;;;;;;;;;;;10.14;100.00;100629.41;5053635;28;20021;-72
2021/11/03 08:19:13;;;;;;;25.25;18.38;;;;;;;10.14;100.00;100630.31;5053226;28;19963;-72
2021/11/03 08:21:39;;;;;;;28.45;19.23;;;;;;;9.81;100.00;100562.75;5052732;28;20021;-73
2021/11/03 08:24:05;;;;;;;23.92;17.92;;;;;;;10.32;100.00;100649.94;5052689;28;20494;-71
2021/11/03 08:26:30;;;;;;;23.90;17.30;;;;;;;10.39;100.00;100646.81;5048537;28;20025;-71
2021/11/03 08:28:56;;;;;;;26.52;19.27;;;;;;;10.33;100.00;100626.78;5044849;28;20025;-71
2021/11/03 08:31:21;;;;;;;27.25;19.27;;;;;;;10.57;100.00;100649.25;5051274;28;20021;-71
2021/11/03 08:33:47;;;;;;;29.25;20.20;;;;;;;10.53;100.00;100655.13;5047725;28;20027;-71
2021/11/03 08:36:15;;;;;;;28.83;19.77;;;;;;;10.55;100.00;100657.75;5050777;28;20474;-71
2021/11/03 08:39:05;;;;;;;27.77;18.63;;;;;;;10.04;100.00;100567.13;5001412;28;20049;-70
2021/11/03 08:41:30;;;;;;;27.48;19.05;;;;;;;10.57;100.00;100658.72;5003290;28;20045;-72
2021/11/03 08:43:56;;;;;;;29.27;20.38;;;;;;;10.52;100.00;100637.88;5006735;28;20034;-72
2021/11/03 08:46:22;;;;;;;27.73;18.50;;;;;;;10.51;100.00;100646.44;5001283;28;20381;-72
2021/11/03 08:48:55;;;;;;;27.63;19.80;;;;;;;10.53;100.00;100662.88;5000874;28;20041;-73
2021/11/03 08:51:20;;;;;;;29.25;20.25;;;;;;;10.19;100.00;100591.78;5002548;28;20539;-71
2021/11/03 08:53:46;;;;;;;31.25;21.15;;;;;;;10.59;100.00;100673.44;5001639;28;20069;-72
2021/11/03 08:56:11;;;;;;;30.40;20.13;;;;;;;10.72;100.00;100681.69;5001032;28;20038;-71
2021/11/03 08:58:38;;;;;;;29.23;19.90;;;;;;;10.64;100.00;100669.34;4982388;28;20030;-71
2021/11/03 09:01:04;;;;;;;29.25;20.58;;;;;;;10.68;100.00;100697.03;5048670;28;20060;-70
2021/11/03 09:03:29;;;;;;;27.20;19.55;;;;;;;10.51;100.00;100695.47;5049566;28;20037;-71
2021/11/03 09:05:55;;;;;;;29.58;20.88;;;;;;;10.54;100.00;100681.81;5049644;28;20036;-73
2021/11/03 09:08:21;;;;;;;33.20;22.25;;;;;;;10.61;100.00;100673.50;5049733;28;20472;-71
2021/11/03 09:10:51;;;;;;;31.50;21.83;;;;;;;10.80;100.00;100694.06;5049793;28;20037;-71
2021/11/03 09:13:20;;;;;;;34.40;23.33;;;;;;;10.78;100.00;100690.53;5049243;28;20126;-71
2021/11/03 09:15:46;;;;;;;35.38;23.67;;;;;;;10.66;100.00;100665.09;5054297;28;20047;-73
2021/11/03 09:18:12;;;;;;;36.13;23.13;;;;;;;10.90;100.00;100681.50;5071778;28;20032;-71
2021/11/03 09:20:40;;;;;;;33.60;22.27;;;;;;;10.85;100.00;100676.16;5071858;28;20398;-72
2021/11/03 09:23:07;;;;;;;35.38;22.88;;;;;;;10.81;100.00;100672.56;5070941;28;20036;-70
2021/11/03 09:25:32;;;;;;;35.90;24.38;;;;;;;10.92;100.00;100678.16;5071144;28;20032;-72
2021/11/03 09:27:58;;;;;;;36.47;24.90;;;;;;;11.10;100.00;100661.59;5063133;28;20040;-71
2021/11/03 09:30:26;;;;;;;34.70;23.42;;;;;;;11.22;100.00;100656.91;5063841;28;20028;-70
2021/11/03 09:32:54;;;;;;;38.58;24.80;;;;;;;11.30;100.00;100646.84;5071512;28;20375;-70
2021/11/03 09:35:22;;;;;;;33.25;21.98;;;;;;;11.43;100.00;100656.81;5070815;28;20114;-72
2021/11/03 09:37:48;;;;;;;33.75;22.65;;;;;;;11.41;100.00;100645.53;5062746;28;20183;-71
2021/11/03 09:40:23;;;;;;;35.45;23.02;;;;;;;11.46;100.00;100645.69;5066528;28;20467;-71
2021/11/03 09:42:49;;;;;;;39.15;26.67;;;;;;;11.62;100.00;100653.16;5068313;28;20150;-71
2021/11/03 09:45:21;;;;;;;42.60;28.40;;;;;;;11.72;100.00;100650.94;5054924;28;20493;-71
2021/11/03 09:48:13;;;;;;;34.55;23.73;;;;;;;11.67;100.00;100642.13;5062487;28;20017;-72
2021/11/03 09:50:52;;;;;;;36.83;25.13;;;;;;;11.72;100.00;100662.13;5061135;28;20040;-69
2021/11/03 09:53:25;;;;;;;32.42;23.33;;;;;;;11.79;100.00;100664.13;5064943;28;20025;-69
2021/11/03 09:55:51;;;;;;;33.25;24.02;;;;;;;11.40;100.00;100586.00;5070668;28;20029;-69
2021/11/03 09:58:19;;;;;;;30.40;22.25;;;;;;;11.79;100.00;100652.91;5064047;28;20063;-68
2021/11/03 10:00:44;;;;;;;31.42;22.58;;;;;;;11.85;100.00;100647.94;5070168;28;20044;-69
2021/11/03 10:03:33;;;;;;;33.08;24.02;;;;;;;12.03;100.00;100655.47;5069546;28;20101;-68
2021/11/03 10:06:01;;;;;;;36.17;25.27;;;;;;;12.10;100.00;100654.88;5070386;28;20029;-67
2021/11/03 10:08:29;;;;;;;35.40;23.05;;;;;;;12.20;100.00;100644.81;5069794;28;20039;-68
2021/11/03 10:11:01;;;;;;;29.67;22.15;;;;;;;11.90;100.00;100570.47;5066383;28;20020;-71
2021/11/03 10:13:37;;;;;;;28.85;20.40;;;;;;;12.22;100.00;100589.66;5066491;28;20404;-70
2021/11/03 10:16:15;;;;;;;30.98;21.13;;;;;;;12.75;100.00;100656.94;5066995;28;20039;-68
2021/11/03 10:18:54;;;;;;;28.85;22.00;;;;;;;12.04;100.00;100519.22;5069760;28;20033;-67
2021/11/03 10:21:25;;;;;;;27.15;20.52;;;;;;;12.98;100.00;100646.38;5062136;28;20033;-70
2021/11/03 10:24:11;;;;;;;26.77;20.80;;;;;;;13.21;100.00;100644.47;5065929;28;20094;-71
2021/11/03 10:26:56;;;;;;;24.80;19.00;;;;;;;13.37;100.00;100640.66;5068260;28;20028;-69
2021/11/03 10:29:25;;;;;;;26.65;19.50;;;;;;;13.46;100.00;100632.25;5063979;28;20112;-72
2021/11/03 10:31:58;;;;;;;25.65;18.30;;;;;;;13.00;100.00;100561.81;5069974;28;20138;-70
2021/11/03 10:34:30;;;;;;;34.60;21.17;;;;;;;13.48;100.00;100634.88;5069484;28;20545;-70
2021/11/03 10:37:26;;;;;;;33.60;18.20;;;;;;;13.05;100.00;100549.84;5069259;28;20025;-71
2021/11/03 10:40:26;;;;;;;32.45;19.55;;;;;;;13.74;100.00;100633.88;5049688;28;20380;-70
2021/11/03 10:43:02;;;;;;;31.02;19.70;;;;;;;13.96;100.00;100626.66;5065942;28;20090;-71
2021/11/03 10:45:35;;;;;;;32.78;18.88;;;;;;;14.02;100.00;100616.44;5063926;28;20032;-67
2021/11/03 10:48:24;;;;;;;28.13;16.48;;;;;;;14.12;100.00;100627.03;5069094;28;20031;-69
2021/11/03 10:50:56;;;;;;;20.83;14.52;;;;;;;14.27;100.00;100609.25;5070425;28;20108;-70
2021/11/03 10:53:26;;;;;;;21.63;15.60;;;;;;;13.91;100.00;100533.09;5067247;28;20039;-70
2021/11/03 10:56:09;;;;;;;20.45;15.00;;;;;;;14.11;99.61;100613.19;5054505;28;20099;-70
2021/11/03 10:58:41;;;;;;;19.75;15.45;;;;;;;14.22;100.00;100606.53;5064841;28;20032;-66
2021/11/03 11:01:11;;;;;;;23.67;17.58;;;;;;;14.43;100.00;100604.41;5055533;28;20052;-69
2021/11/03 11:03:54;;;;;;;19.63;15.32;;;;;;;14.38;100.00;100610.38;5049726;28;20454;-69
2021/11/03 11:06:25;;;;;;;18.95;14.65;;;;;;;14.41;100.00;100604.38;5003324;28;21613;-69
2021/11/03 11:08:55;;;;;;;20.20;15.50;;;;;;;14.42;100.00;100593.16;5049869;28;20025;-75
2021/11/03 11:11:22;;;;;;;17.88;14.38;;;;;;;14.39;100.00;100577.47;5041314;28;20029;-71